Terminal Aerodrome Forecast
Issued by NWS

Home | Current Version | Previous Version | Text Only | Print | Product List | Glossary On
Versions: 1 2 3 4 5 6 7 8 9 10 11 12 13 14 15 16 17
000
FTUS41 KCAR 080354 AAB
TAFHUL
TAF AMD
KHUL 080354Z 0804/0824 19010G20KT P6SM SCT007 BKN015
     FM080600 19006KT P6SM -SHRA OVC007
     FM080900 19010G20KT 4SM -SHRA OVC006
     FM081400 24006KT P6SM BKN010
     FM081700 28008KT P6SM SCT050=

USA.gov is the U.S. government's official web portal to all federal, state and local government web resources and services.